Time;durP1;ratioP1;P1;durP2;ratioP2;P2;SDS_P1;SDS_P2;PMS_P1;PMS_P2;Temp;Humidity;BMP_temperature;BMP_pressure;BME280_temperature;BME280_humidity;BME280_pressure;Samples;Min_cycle;Max_cycle;Signal;HPM_P1;HPM_P2
2023/12/12 00:00:43;;;;;;;5.45;2.75;;;;;;;-145.63;58.23;39053.59;5096228;28;20040;-65
2023/12/12 00:03:09;;;;;;;5.82;3.25;;;;;;;-145.63;57.37;38820.88;5081081;28;20021;-65
2023/12/12 00:05:35;;;;;;;4.30;2.83;;;;;;;-145.63;57.45;39075.09;5064493;28;20029;-64
2023/12/12 00:08:00;;;;;;;4.32;2.70;;;;;;;-145.63;57.43;39018.38;5084011;28;20091;-63
2023/12/12 00:10:26;;;;;;;3.88;2.38;;;;;;;-145.63;57.57;39043.81;5084510;28;20032;-63
2023/12/12 00:12:52;;;;;;;7.32;3.10;;;;;;;-145.63;57.16;39045.75;5074509;28;20067;-62
2023/12/12 00:15:18;;;;;;;7.93;3.10;;;;;;;-145.63;57.61;39043.81;5069494;28;20080;-63
2023/12/12 00:17:44;;;;;;;4.00;2.50;;;;;;;-145.63;57.14;39043.81;5084337;28;20021;-63
2023/12/12 00:20:10;;;;;;;6.40;2.80;;;;;;;-145.63;56.77;39035.97;5084606;28;20092;-64
2023/12/12 00:22:36;;;;;;;3.45;2.45;;;;;;;-145.63;57.17;39034.03;5084267;28;20083;-63
2023/12/12 00:25:03;;;;;;;5.00;2.70;;;;;;;-145.63;57.34;39018.38;5084293;28;20032;-64
2023/12/12 00:27:30;;;;;;;5.32;3.00;;;;;;;-145.63;56.63;39051.63;5077710;28;20066;-64
2023/12/12 00:29:56;;;;;;;4.20;2.65;;;;;;;-145.63;57.06;39045.75;5064906;28;20041;-64
2023/12/12 00:32:22;;;;;;;4.25;2.60;;;;;;;-145.63;56.53;39039.88;5084188;28;20043;-63
2023/12/12 00:34:48;;;;;;;6.65;2.80;;;;;;;-145.63;56.82;39032.06;5066758;28;20075;-64
2023/12/12 00:37:13;;;;;;;4.55;2.95;;;;;;;-145.63;56.58;39028.16;5076438;28;20028;-64
2023/12/12 00:39:40;;;;;;;5.95;3.03;;;;;;;-145.63;56.55;39024.25;5076206;28;20266;-64
2023/12/12 00:42:06;;;;;;;6.32;3.03;;;;;;;-145.63;57.23;39039.88;5083185;28;20042;-64
2023/12/12 00:44:34;;;;;;;5.80;3.28;;;;;;;-145.63;57.40;39049.66;5084239;28;20024;-64
2023/12/12 00:47:00;;;;;;;4.35;2.72;;;;;;;-145.63;56.86;39037.94;5065267;28;20092;-64
2023/12/12 00:49:25;;;;;;;4.43;3.13;;;;;;;-145.63;56.61;39010.56;5077587;28;20013;-64
2023/12/12 00:51:51;;;;;;;4.63;3.08;;;;;;;-145.63;56.59;39061.41;5083428;28;20031;-64
2023/12/12 00:54:17;;;;;;;9.88;3.08;;;;;;;-145.63;56.10;39039.88;5083699;28;20025;-63
2023/12/12 00:56:44;;;;;;;5.32;3.22;;;;;;;-145.63;57.04;39030.13;5083684;28;20024;-64
2023/12/12 00:59:10;;;;;;;4.00;2.65;;;;;;;-145.63;56.54;39012.50;5103964;28;20108;-64
2023/12/12 01:01:35;;;;;;;4.85;3.00;;;;;;;-145.63;56.09;39020.34;5088459;28;20317;-64
2023/12/12 01:04:01;;;;;;;4.55;2.58;;;;;;;-145.63;56.72;39047.72;5072975;28;20028;-63
2023/12/12 01:06:27;;;;;;;7.88;3.00;;;;;;;-145.63;56.20;39032.06;5069094;28;20297;-64
2023/12/12 01:08:53;;;;;;;5.30;3.00;;;;;;;-145.63;56.71;39030.13;5082331;28;20052;-65
2023/12/12 01:11:19;;;;;;;4.28;2.60;;;;;;;-145.63;56.07;39016.44;5063457;28;20048;-65
2023/12/12 01:13:46;;;;;;;4.60;2.58;;;;;;;-145.63;56.36;39039.88;5079632;28;20424;-65
2023/12/12 01:16:12;;;;;;;5.07;2.70;;;;;;;-145.63;56.21;39043.81;5071576;28;20363;-64
2023/12/12 01:18:38;;;;;;;5.05;2.90;;;;;;;-145.63;56.28;39041.84;5070206;28;20020;-64
2023/12/12 01:21:05;;;;;;;4.32;2.80;;;;;;;-145.63;56.72;39034.03;5083541;28;20020;-64
2023/12/12 01:23:52;;;;;;;5.70;2.90;;;;;;;-145.63;56.03;38994.91;5083170;28;20131;-63
2023/12/12 01:26:20;;;;;;;4.40;2.42;;;;;;;-145.63;56.45;39012.50;5071090;28;20298;-63
2023/12/12 01:28:46;;;;;;;3.80;2.72;;;;;;;-145.63;55.49;39028.16;5082933;28;20025;-64
2023/12/12 01:31:14;;;;;;;4.18;2.55;;;;;;;-145.63;56.11;39039.88;5071662;28;20309;-64
2023/12/12 01:33:40;;;;;;;5.63;2.75;;;;;;;-145.63;55.01;39014.47;5069007;28;20150;-65
2023/12/12 01:36:06;;;;;;;5.25;2.90;;;;;;;-145.63;55.94;39032.06;5080392;28;20047;-63
2023/12/12 01:38:32;;;;;;;6.22;2.60;;;;;;;-145.63;55.42;38989.03;5062988;28;20063;-64
2023/12/12 01:40:58;;;;;;;4.82;2.45;;;;;;;-145.63;55.95;39043.81;5080812;28;20032;-63
2023/12/12 01:43:28;;;;;;;3.60;2.50;;;;;;;-145.63;56.30;39030.13;5069678;28;20094;-63
2023/12/12 01:45:56;;;;;;;5.00;2.72;;;;;;;-145.63;56.39;39024.25;5071688;28;20320;-63
2023/12/12 01:48:23;;;;;;;4.25;2.85;;;;;;;-145.63;55.56;39024.25;5078145;28;20340;-64
2023/12/12 01:50:53;;;;;;;4.75;2.83;;;;;;;-145.63;55.77;39034.03;5082651;28;20265;-64
2023/12/12 01:53:28;;;;;;;3.45;2.50;;;;;;;-145.63;55.29;39014.47;5083075;28;20297;-64
2023/12/12 01:55:55;;;;;;;3.90;2.30;;;;;;;-145.63;54.91;39059.44;5082628;28;20033;-64
2023/12/12 01:58:24;;;;;;;4.15;2.70;;;;;;;-145.63;56.05;39071.19;5095614;28;20095;-63
2023/12/12 02:00:50;;;;;;;4.38;2.20;;;;;;;-145.63;55.74;39004.69;5094468;28;20033;-63
2023/12/12 02:03:16;;;;;;;4.63;2.50;;;;;;;-145.63;56.14;38805.22;5078464;28;20100;-64
2023/12/12 02:05:45;;;;;;;3.72;2.42;;;;;;;-145.63;56.20;38953.84;5062406;28;20159;-64
2023/12/12 02:08:11;;;;;;;4.53;2.50;;;;;;;-145.63;55.28;39030.13;5082195;28;20068;-64
2023/12/12 02:10:37;;;;;;;5.15;2.90;;;;;;;-145.63;55.36;39057.50;5067876;28;20036;-65
2023/12/12 02:13:04;;;;;;;5.35;2.75;;;;;;;-145.63;55.94;38809.13;5072716;28;20289;-67
2023/12/12 02:15:31;;;;;;;4.93;2.42;;;;;;;-145.63;55.20;39047.72;5077396;28;20106;-64
2023/12/12 02:17:57;;;;;;;5.78;2.90;;;;;;;-145.63;55.33;39037.94;5063412;28;20318;-65
2023/12/12 02:20:23;;;;;;;25.85;5.32;;;;;;;-145.63;55.55;39008.59;5082512;28;20043;-64
2023/12/12 02:22:48;;;;;;;4.38;2.83;;;;;;;-145.63;56.20;39028.16;5082536;28;20021;-64
2023/12/12 02:25:18;;;;;;;7.25;2.75;;;;;;;-145.63;56.16;39102.47;5069732;28;20021;-65
2023/12/12 02:27:46;;;;;;;3.85;2.47;;;;;;;-145.63;55.93;39020.34;5070007;28;20043;-65
2023/12/12 02:30:14;;;;;;;4.85;2.70;;;;;;;-145.63;57.52;39030.13;5079670;28;20044;-64
2023/12/12 02:32:40;;;;;;;5.18;2.90;;;;;;;-145.63;57.37;39035.97;5062458;28;20159;-65
2023/12/12 02:35:06;;;;;;;5.38;2.60;;;;;;;-145.63;56.82;39026.19;5080777;28;20051;-64
2023/12/12 02:37:31;;;;;;;5.53;2.90;;;;;;;-145.63;57.81;39024.25;5068975;28;20037;-65
2023/12/12 02:39:57;;;;;;;4.00;2.78;;;;;;;-145.63;58.10;38987.09;5070988;28;20040;-64
2023/12/12 02:42:23;;;;;;;3.85;2.60;;;;;;;-145.63;57.09;39047.72;5078139;28;20206;-64
2023/12/12 02:44:48;;;;;;;4.05;2.60;;;;;;;-145.63;57.84;39016.44;5062222;28;20033;-63
2023/12/12 02:47:14;;;;;;;4.53;2.95;;;;;;;-145.63;57.31;39035.97;5081980;28;20032;-62
2023/12/12 02:49:40;;;;;;;4.13;2.50;;;;;;;-145.63;58.39;39051.63;5077445;28;20031;-61
2023/12/12 02:52:06;;;;;;;8.13;3.22;;;;;;;-145.63;57.91;39035.97;5082297;28;20039;-62
2023/12/12 02:54:31;;;;;;;5.82;3.03;;;;;;;-145.63;57.61;39041.84;5082152;28;20197;-62
2023/12/12 02:56:57;;;;;;;4.90;3.00;;;;;;;-145.63;58.07;39030.13;5082804;28;20040;-63
2023/12/12 02:59:23;;;;;;;6.10;2.72;;;;;;;-145.63;57.72;39055.53;5102535;28;20032;-63
2023/12/12 03:01:49;;;;;;;5.95;2.83;;;;;;;-145.63;58.20;39028.16;5085044;28;20024;-63
2023/12/12 03:04:14;;;;;;;5.65;2.90;;;;;;;-145.63;58.95;39016.44;5070872;28;20029;-63
2023/12/12 03:06:40;;;;;;;4.53;3.08;;;;;;;-145.63;58.37;39004.69;5068493;28;20224;-62
2023/12/12 03:09:06;;;;;;;6.15;3.08;;;;;;;-145.63;57.88;39020.34;5080408;28;20021;-63
2023/12/12 03:11:34;;;;;;;4.60;2.88;;;;;;;-145.63;57.61;39032.06;5062177;28;20035;-63
2023/12/12 03:14:00;;;;;;;6.82;3.15;;;;;;;-145.63;57.91;39024.25;5079206;28;20031;-62
2023/12/12 03:16:27;;;;;;;6.40;3.17;;;;;;;-145.63;57.74;39030.13;5085151;28;20017;-61
2023/12/12 03:18:53;;;;;;;5.95;2.72;;;;;;;-145.63;57.48;39016.44;5077321;28;20029;-63
2023/12/12 03:21:19;;;;;;;5.43;3.10;;;;;;;-145.63;57.41;39055.53;5065502;28;20023;-64
2023/12/12 03:23:46;;;;;;;6.78;3.38;;;;;;;-145.63;58.07;39102.47;5065412;28;20028;-63
2023/12/12 03:26:12;;;;;;;4.30;2.58;;;;;;;-145.63;57.21;39028.16;5084500;28;20076;-63
2023/12/12 03:28:38;;;;;;;6.18;2.90;;;;;;;-145.63;57.92;39039.88;5071108;28;20028;-63
2023/12/12 03:31:05;;;;;;;5.72;3.20;;;;;;;-145.63;58.78;39022.28;5074891;28;20028;-63
2023/12/12 03:33:31;;;;;;;5.32;3.13;;;;;;;-145.63;58.24;39053.59;5080665;28;20036;-62
2023/12/12 03:35:56;;;;;;;4.90;3.05;;;;;;;-145.63;57.77;38994.91;5063725;28;20313;-62
2023/12/12 03:38:22;;;;;;;6.00;3.58;;;;;;;-145.63;58.38;39061.41;5085325;28;20051;-62
2023/12/12 03:40:48;;;;;;;7.70;3.50;;;;;;;-145.63;59.14;39051.63;5069393;28;20032;-63
2023/12/12 03:43:13;;;;;;;4.70;3.30;;;;;;;-145.63;58.48;39037.94;5075737;28;20020;-63
2023/12/12 03:45:40;;;;;;;5.22;3.53;;;;;;;-145.63;58.32;39012.50;5078734;28;20032;-63
2023/12/12 03:48:06;;;;;;;5.57;3.10;;;;;;;-145.63;58.53;39039.88;5066084;28;20025;-63
2023/12/12 03:50:32;;;;;;;7.10;3.08;;;;;;;-145.63;58.03;39043.81;5084950;28;20139;-63
2023/12/12 03:52:58;;;;;;;7.82;4.07;;;;;;;-145.63;58.48;39063.34;5085077;28;20321;-63
2023/12/12 03:55:23;;;;;;;6.18;3.35;;;;;;;-145.63;58.01;39041.84;5084886;28;20032;-64
2023/12/12 03:57:49;;;;;;;5.25;2.97;;;;;;;-145.63;57.24;39024.25;5091977;28;20024;-64
2023/12/12 04:00:15;;;;;;;5.60;3.60;;;;;;;-145.63;57.88;39012.50;5102062;28;20028;-63
2023/12/12 04:02:41;;;;;;;6.35;3.70;;;;;;;-145.63;57.47;39039.88;5084613;28;20108;-64
2023/12/12 04:05:11;;;;;;;4.55;2.80;;;;;;;-145.63;57.89;39055.53;5066548;28;20080;-64
2023/12/12 04:07:40;;;;;;;5.10;2.80;;;;;;;-145.63;57.24;39094.66;5078320;28;20034;-62
2023/12/12 04:10:07;;;;;;;3.80;2.92;;;;;;;-145.63;57.06;39079.00;5074950;28;20029;-63
2023/12/12 04:12:37;;;;;;;8.52;3.90;;;;;;;-145.63;58.11;39024.25;5064446;28;20025;-62
2023/12/12 04:15:03;;;;;;;4.45;3.17;;;;;;;-145.63;57.70;39092.69;5065237;28;20028;-62
2023/12/12 04:17:33;;;;;;;4.88;3.47;;;;;;;-145.63;58.13;39057.50;5084648;28;20024;-63
2023/12/12 04:19:59;;;;;;;5.90;3.47;;;;;;;-145.63;57.86;39035.97;5067422;28;20055;-62
2023/12/12 04:22:25;;;;;;;6.82;3.40;;;;;;;-145.63;57.69;39051.63;5076012;28;20039;-61
2023/12/12 04:24:50;;;;;;;6.50;3.30;;;;;;;-145.63;56.57;39063.34;5076964;28;20213;-63
2023/12/12 04:27:16;;;;;;;4.13;3.17;;;;;;;-145.63;57.75;39106.38;5065811;28;20029;-63
2023/12/12 04:29:42;;;;;;;7.30;4.18;;;;;;;-145.63;57.05;39067.28;5083603;28;20055;-62
2023/12/12 04:32:07;;;;;;;5.43;3.40;;;;;;;-145.63;57.26;39016.44;5065997;28;20363;-63
2023/12/12 04:34:33;;;;;;;16.73;3.72;;;;;;;-145.63;57.82;39024.25;5076882;28;20351;-64
2023/12/12 04:37:01;;;;;;;4.80;3.08;;;;;;;-145.63;58.01;39049.66;5075775;28;20082;-63
2023/12/12 04:39:27;;;;;;;7.00;4.03;;;;;;;-145.63;58.53;39112.25;5066335;28;20247;-64
2023/12/12 04:41:53;;;;;;;5.70;3.83;;;;;;;-145.63;58.46;39055.53;5083699;28;20201;-63
2023/12/12 04:44:20;;;;;;;7.53;3.70;;;;;;;-145.63;57.75;39071.19;5064943;28;20028;-64
2023/12/12 04:46:45;;;;;;;7.00;4.03;;;;;;;-145.63;57.84;39047.72;5078098;28;20028;-65
2023/12/12 04:49:11;;;;;;;6.35;3.45;;;;;;;-145.63;58.34;39032.06;5080473;28;20355;-64
2023/12/12 04:51:37;;;;;;;6.97;3.58;;;;;;;-145.63;58.59;39049.66;5083579;28;20047;-63
2023/12/12 04:54:03;;;;;;;5.78;4.07;;;;;;;-145.63;58.22;39061.41;5083512;28;20388;-63
2023/12/12 04:56:28;;;;;;;6.07;3.78;;;;;;;-145.63;58.42;39075.09;5083511;28;20025;-62
2023/12/12 04:58:54;;;;;;;5.43;3.97;;;;;;;-145.63;58.24;39043.81;5099270;28;20020;-61
2023/12/12 05:01:20;;;;;;;6.40;3.90;;;;;;;-145.63;58.40;39008.59;5092640;28;20052;-64
2023/12/12 05:03:46;;;;;;;5.25;3.92;;;;;;;-145.63;59.40;39055.53;5079027;28;20032;-64
2023/12/12 05:06:11;;;;;;;6.25;3.78;;;;;;;-145.63;58.98;39045.75;5083313;28;20312;-64
2023/12/12 05:08:38;;;;;;;6.40;4.47;;;;;;;-145.63;58.48;39030.13;5083342;28;20237;-65
2023/12/12 05:11:06;;;;;;;7.68;3.92;;;;;;;-145.63;59.09;39061.41;5066066;28;20021;-65
2023/12/12 05:13:32;;;;;;;6.10;4.25;;;;;;;-145.63;58.42;39047.72;5075556;28;20056;-64
2023/12/12 05:15:57;;;;;;;9.25;4.13;;;;;;;-145.63;58.67;39077.06;5075000;28;20049;-64
2023/12/12 05:18:23;;;;;;;6.25;4.43;;;;;;;-145.63;57.95;39069.22;5080320;28;20071;-65
2023/12/12 05:20:49;;;;;;;6.63;4.13;;;;;;;-145.63;57.59;39071.19;5078153;28;20174;-64
2023/12/12 05:23:16;;;;;;;7.93;4.45;;;;;;;-145.63;57.33;39079.00;5082894;28;20024;-65
2023/12/12 05:25:42;;;;;;;8.50;4.15;;;;;;;-145.63;58.23;39063.34;5069033;28;20187;-64
2023/12/12 05:28:08;;;;;;;6.00;3.70;;;;;;;-145.63;57.79;39080.97;5071762;28;20025;-64
2023/12/12 05:30:33;;;;;;;6.10;3.90;;;;;;;-145.63;57.43;39165.06;5082307;28;20025;-65
2023/12/12 05:32:59;;;;;;;5.60;3.63;;;;;;;-145.63;57.71;39055.53;5082077;28;20091;-65
2023/12/12 05:35:25;;;;;;;6.82;3.97;;;;;;;-145.63;57.41;39043.81;5082127;28;20040;-63
2023/12/12 05:37:51;;;;;;;6.25;4.38;;;;;;;-145.63;57.01;39028.16;5066574;28;20272;-65
2023/12/12 05:40:16;;;;;;;7.25;3.83;;;;;;;-145.63;58.22;39071.19;5072591;28;20027;-63
2023/12/12 05:42:43;;;;;;;7.85;4.38;;;;;;;-145.63;57.43;39079.00;5077175;28;20083;-65
2023/12/12 05:45:09;;;;;;;7.30;4.13;;;;;;;-145.63;57.11;39086.81;5063198;28;20051;-65
2023/12/12 05:47:35;;;;;;;6.72;3.80;;;;;;;-145.63;56.37;39045.75;5082748;28;20017;-63
2023/12/12 05:50:02;;;;;;;6.78;4.03;;;;;;;-145.63;57.41;39079.00;5081463;28;20020;-63
2023/12/12 05:52:30;;;;;;;8.65;4.25;;;;;;;-145.63;56.58;39088.78;5082825;28;20482;-63
2023/12/12 05:54:56;;;;;;;8.35;4.85;;;;;;;-145.63;56.58;39022.28;5082436;28;20051;-63
2023/12/12 05:57:22;;;;;;;5.47;3.92;;;;;;;-145.63;57.87;39061.41;5083956;28;20025;-63
2023/12/12 05:59:48;;;;;;;6.00;4.40;;;;;;;-145.63;56.69;38887.34;5102747;28;20305;-63
2023/12/12 06:02:14;;;;;;;6.03;4.22;;;;;;;-145.63;56.41;39067.28;5084634;28;20029;-63
2023/12/12 06:04:40;;;;;;;9.48;3.88;;;;;;;-145.63;57.03;39039.88;5068251;28;20032;-63
2023/12/12 06:07:06;;;;;;;6.63;3.67;;;;;;;-145.63;56.88;39055.53;5070708;28;20110;-63
2023/12/12 06:09:32;;;;;;;10.32;4.50;;;;;;;-145.63;56.52;39057.50;5078985;28;20128;-63
2023/12/12 06:12:01;;;;;;;6.93;4.55;;;;;;;-145.63;56.84;39055.53;5062441;28;20041;-64
2023/12/12 06:14:28;;;;;;;5.70;3.60;;;;;;;-145.63;56.50;39034.03;5082084;28;20028;-62
2023/12/12 06:16:53;;;;;;;9.02;4.68;;;;;;;-145.63;56.17;39080.97;5067362;28;20367;-63
2023/12/12 06:19:19;;;;;;;5.95;3.97;;;;;;;-145.63;56.09;39059.44;5072305;28;20017;-63
2023/12/12 06:21:46;;;;;;;5.68;3.67;;;;;;;-145.63;56.91;39030.13;5082195;28;20067;-65
2023/12/12 06:24:13;;;;;;;8.48;3.92;;;;;;;-145.63;57.38;39043.81;5081598;28;20047;-63
2023/12/12 06:26:39;;;;;;;6.45;3.80;;;;;;;-145.63;56.69;39084.88;5062386;28;20028;-63
2023/12/12 06:29:07;;;;;;;6.63;4.10;;;;;;;-145.63;56.43;39049.66;5078190;28;20032;-63
2023/12/12 06:31:33;;;;;;;8.02;4.78;;;;;;;-145.63;56.97;39034.03;5078023;28;20278;-63
2023/12/12 06:33:58;;;;;;;6.65;4.38;;;;;;;-145.63;57.34;39024.25;5081393;28;20108;-62
2023/12/12 06:36:24;;;;;;;10.63;5.57;;;;;;;-145.63;57.09;39047.72;5079903;28;20044;-62
2023/12/12 06:38:50;;;;;;;6.50;4.20;;;;;;;-145.63;56.74;39018.38;5062064;28;20048;-65
2023/12/12 06:41:15;;;;;;;6.00;4.30;;;;;;;-145.63;56.72;39047.72;5079235;28;20021;-63
2023/12/12 06:43:42;;;;;;;6.40;3.80;;;;;;;-145.63;56.36;39028.16;5079888;28;20046;-63
2023/12/12 06:46:08;;;;;;;6.75;3.90;;;;;;;-145.63;56.62;39035.97;5081651;28;20034;-62
2023/12/12 06:48:34;;;;;;;5.88;3.83;;;;;;;-145.63;56.45;39014.47;5081168;28;20024;-63
2023/12/12 06:51:00;;;;;;;7.75;4.07;;;;;;;-145.63;56.26;39026.19;5085757;28;20271;-64
2023/12/12 06:53:26;;;;;;;6.72;3.75;;;;;;;-145.63;57.44;39008.59;5085687;28;20062;-63
2023/12/12 06:55:51;;;;;;;4.82;3.35;;;;;;;-145.63;57.07;38844.34;5085574;28;20083;-63
2023/12/12 06:58:17;;;;;;;5.15;3.70;;;;;;;-145.63;57.67;39018.38;5094997;28;20089;-62
2023/12/12 07:00:43;;;;;;;6.10;3.88;;;;;;;-145.63;56.80;39047.72;5101035;28;20170;-64
2023/12/12 07:03:10;;;;;;;7.30;3.75;;;;;;;-145.63;57.28;39018.38;5085203;28;20054;-63
2023/12/12 07:05:36;;;;;;;9.88;4.22;;;;;;;-145.63;57.55;39014.47;5069526;28;20031;-64
2023/12/12 07:08:03;;;;;;;6.70;3.70;;;;;;;-145.63;57.48;39024.25;5080951;28;20251;-64
2023/12/12 07:10:30;;;;;;;6.32;3.90;;;;;;;-145.63;58.17;39035.97;5085545;28;20055;-62
2023/12/12 07:12:56;;;;;;;6.70;4.65;;;;;;;-145.63;57.42;39012.50;5085203;28;20024;-63
2023/12/12 07:15:23;;;;;;;7.03;3.80;;;;;;;-145.63;56.74;39041.84;5083967;28;20039;-62
2023/12/12 07:17:49;;;;;;;5.72;3.53;;;;;;;-145.63;57.46;39026.19;5065234;28;20134;-64
2023/12/12 07:20:15;;;;;;;5.57;3.38;;;;;;;-145.63;56.96;39004.69;5082468;28;20317;-63
2023/12/12 07:22:40;;;;;;;7.82;3.80;;;;;;;-145.63;56.46;39039.88;5072647;28;20021;-64
2023/12/12 07:25:08;;;;;;;7.40;3.70;;;;;;;-145.63;56.12;39002.72;5072725;28;20020;-62
2023/12/12 07:27:33;;;;;;;7.25;3.88;;;;;;;-145.63;56.49;39026.19;5081963;28;20035;-63
2023/12/12 07:29:59;;;;;;;8.85;4.47;;;;;;;-145.63;56.72;39030.13;5068236;28;20052;-62
2023/12/12 07:32:26;;;;;;;7.90;4.40;;;;;;;-145.63;57.80;39026.19;5084847;28;20043;-62
2023/12/12 07:34:53;;;;;;;7.95;4.35;;;;;;;-145.63;57.53;39022.28;5084677;28;20067;-62
2023/12/12 07:37:19;;;;;;;8.45;4.35;;;;;;;-145.63;56.32;38992.97;5084857;28;20036;-62
2023/12/12 07:39:44;;;;;;;8.23;4.20;;;;;;;-145.63;56.53;39004.69;5079900;28;20396;-62
2023/12/12 07:42:10;;;;;;;6.97;4.32;;;;;;;-145.63;56.25;38998.81;5064667;28;20091;-61
2023/12/12 07:44:36;;;;;;;6.45;3.95;;;;;;;-145.63;57.24;39026.19;5084655;28;20028;-63
2023/12/12 07:47:02;;;;;;;7.25;4.03;;;;;;;-145.63;57.02;39014.47;5069069;28;20035;-63
2023/12/12 07:49:29;;;;;;;5.28;3.55;;;;;;;-145.63;57.64;39004.69;5074300;28;20028;-62
2023/12/12 07:51:54;;;;;;;7.82;3.50;;;;;;;-145.63;57.49;39008.59;5084305;28;20029;-63
2023/12/12 07:54:20;;;;;;;5.90;3.80;;;;;;;-145.63;57.39;38992.97;5083998;28;20025;-62
2023/12/12 07:56:46;;;;;;;11.27;4.03;;;;;;;-145.63;56.86;39016.44;5083568;28;20146;-64
2023/12/12 07:59:12;;;;;;;9.15;4.00;;;;;;;-145.63;56.89;39020.34;5084332;28;20321;-63
2023/12/12 08:01:39;;;;;;;8.68;3.63;;;;;;;-145.63;56.84;39002.72;5083336;28;20056;-63
2023/12/12 08:04:07;;;;;;;6.72;4.28;;;;;;;-145.63;56.55;39012.50;5076112;28;20284;-62
2023/12/12 08:06:33;;;;;;;7.78;3.50;;;;;;;-145.63;56.36;39000.78;5095041;28;20029;-62
2023/12/12 08:08:59;;;;;;;8.88;4.20;;;;;;;-145.63;56.23;39039.88;5084370;28;20210;-62
2023/12/12 08:11:27;;;;;;;6.88;3.65;;;;;;;-145.63;56.14;39016.44;5066009;28;20025;-62
2023/12/12 08:13:56;;;;;;;8.15;3.70;;;;;;;-145.63;55.84;39014.47;5063931;28;20044;-63
2023/12/12 08:16:24;;;;;;;5.22;3.58;;;;;;;-145.63;55.43;39012.50;5073601;28;20031;-62
2023/12/12 08:18:50;;;;;;;7.82;3.80;;;;;;;-145.63;56.01;39004.69;5077980;28;20221;-62
2023/12/12 08:21:17;;;;;;;8.00;3.83;;;;;;;-145.63;55.80;39016.44;5064277;28;20017;-62
2023/12/12 08:23:43;;;;;;;7.15;3.67;;;;;;;-145.63;55.77;38936.25;5083530;28;20028;-62
2023/12/12 08:26:12;;;;;;;7.97;4.10;;;;;;;-145.63;56.55;39010.56;5079345;28;20647;-62
2023/12/12 08:28:38;;;;;;;8.95;4.00;;;;;;;-145.63;56.86;39016.44;5076655;28;20028;-62
2023/12/12 08:31:05;;;;;;;6.88;4.25;;;;;;;-145.63;55.85;39024.25;5076610;28;20024;-62
2023/12/12 08:33:33;;;;;;;8.00;3.83;;;;;;;-145.63;56.95;39026.19;5080133;28;20048;-63
2023/12/12 08:36:00;;;;;;;5.63;3.83;;;;;;;-145.63;55.48;39024.25;5078496;28;20057;-62
2023/12/12 08:38:25;;;;;;;5.95;3.72;;;;;;;-145.63;55.40;39039.88;5080667;28;20034;-63
2023/12/12 08:40:51;;;;;;;5.38;3.25;;;;;;;-145.63;56.28;39016.44;5077529;28;20397;-63
2023/12/12 08:43:17;;;;;;;10.15;3.50;;;;;;;-145.63;55.27;39030.13;5075334;28;20052;-62
2023/12/12 08:45:46;;;;;;;7.25;3.67;;;;;;;-145.63;56.05;39020.34;5066892;28;20229;-62
2023/12/12 08:48:12;;;;;;;7.53;3.58;;;;;;;-145.63;55.29;39000.78;5080366;28;20020;-63
2023/12/12 08:50:38;;;;;;;5.05;3.80;;;;;;;-145.63;56.18;39002.72;5075430;28;20063;-63
2023/12/12 08:53:03;;;;;;;8.35;3.55;;;;;;;-145.63;56.22;39024.25;5076585;28;20044;-62
2023/12/12 08:55:30;;;;;;;6.03;3.20;;;;;;;-145.63;55.58;39043.81;5080982;28;20297;-62
2023/12/12 08:57:56;;;;;;;6.53;3.15;;;;;;;-145.63;55.41;39014.47;5078902;28;20028;-63
2023/12/12 09:00:21;;;;;;;5.25;3.53;;;;;;;-145.63;55.32;38998.81;5082553;28;20025;-61
2023/12/12 09:02:47;;;;;;;8.85;3.30;;;;;;;-145.63;55.49;39008.59;5080039;28;20036;-63
2023/12/12 09:05:13;;;;;;;7.15;3.20;;;;;;;-145.63;54.59;39030.13;5082382;28;20070;-63
2023/12/12 09:07:40;;;;;;;7.97;3.60;;;;;;;-145.63;56.04;39026.19;5082831;28;20028;-64
2023/12/12 09:10:07;;;;;;;8.35;3.30;;;;;;;-145.63;55.72;39024.25;5082861;28;20031;-62
2023/12/12 09:12:33;;;;;;;7.15;3.47;;;;;;;-145.63;55.04;39002.72;5079071;28;20051;-63
2023/12/12 09:14:59;;;;;;;9.85;4.25;;;;;;;-145.63;54.51;39045.75;5082132;28;20046;-63
2023/12/12 09:17:25;;;;;;;6.10;3.13;;;;;;;-145.63;55.20;38996.88;5082631;28;20042;-61
2023/12/12 09:19:51;;;;;;;8.77;4.03;;;;;;;-145.63;56.15;38996.88;5082638;28;20047;-64
2023/12/12 09:22:16;;;;;;;8.23;3.42;;;;;;;-145.63;55.10;39026.19;5074367;28;20031;-62
2023/12/12 09:24:42;;;;;;;8.75;3.88;;;;;;;-145.63;55.73;39016.44;5081464;28;20044;-64
2023/12/12 09:27:08;;;;;;;8.00;3.95;;;;;;;-145.63;54.73;39035.97;5082392;28;20016;-63
2023/12/12 09:29:34;;;;;;;8.35;3.75;;;;;;;-145.63;55.11;39045.75;5082255;28;20028;-63
2023/12/12 09:31:59;;;;;;;5.03;3.10;;;;;;;-145.63;54.48;39016.44;5080902;28;20267;-63
2023/12/12 09:34:25;;;;;;;7.05;3.95;;;;;;;-145.63;55.47;39020.34;5082148;28;20231;-63
2023/12/12 09:36:51;;;;;;;7.05;3.45;;;;;;;-145.63;55.28;39063.34;5082069;28;20206;-63
2023/12/12 09:39:17;;;;;;;7.40;3.30;;;;;;;-145.63;56.05;38989.03;5081063;28;20054;-64
2023/12/12 09:41:49;;;;;;;8.07;3.75;;;;;;;-145.63;54.88;39020.34;5082108;28;20036;-63
2023/12/12 09:44:17;;;;;;;5.60;3.30;;;;;;;-145.63;55.30;38989.03;5079931;28;20024;-65
2023/12/12 09:46:43;;;;;;;3.53;2.58;;;;;;;-145.63;55.92;39010.56;5082027;28;20189;-63
2023/12/12 09:49:11;;;;;;;7.35;3.50;;;;;;;-145.63;55.41;39047.72;5082020;28;20055;-64
2023/12/12 09:51:44;;;;;;;6.97;3.70;;;;;;;-145.63;56.03;39004.69;5080626;28;20080;-62
2023/12/12 09:54:11;;;;;;;9.82;3.30;;;;;;;-145.63;56.11;39043.81;5081840;28;20027;-64
2023/12/12 09:56:37;;;;;;;8.30;3.50;;;;;;;-145.63;54.94;39014.47;5081446;28;20087;-63
2023/12/12 09:59:05;;;;;;;7.15;3.42;;;;;;;-145.63;55.85;39020.34;5080589;28;20408;-63
2023/12/12 10:01:34;;;;;;;5.40;3.30;;;;;;;-145.63;55.39;38971.44;5077607;28;20029;-63
2023/12/12 10:04:08;;;;;;;7.68;3.10;;;;;;;-145.63;56.30;39008.59;5072474;28;20021;-64
2023/12/12 10:06:57;;;;;;;7.07;3.13;;;;;;;-145.63;55.24;39030.13;5067972;28;20360;-65
2023/12/12 10:09:22;;;;;;;3.25;2.72;;;;;;;-145.63;55.42;39006.66;5081864;28;20036;-63
2023/12/12 10:11:48;;;;;;;8.00;3.00;;;;;;;-145.63;55.26;39012.50;5081938;28;20020;-64
2023/12/12 10:14:15;;;;;;;8.60;3.30;;;;;;;-145.63;55.62;38998.81;5082144;28;20063;-63
2023/12/12 10:16:41;;;;;;;9.48;3.53;;;;;;;-145.63;55.70;39032.06;5080453;28;20309;-62
2023/12/12 10:19:12;;;;;;;10.25;3.63;;;;;;;-145.63;55.39;39020.34;5076002;28;20037;-63
2023/12/12 10:21:38;;;;;;;5.78;3.03;;;;;;;-145.63;55.32;38992.97;5064312;28;20079;-62
2023/12/12 10:24:04;;;;;;;6.13;3.03;;;;;;;-145.63;55.97;39028.16;5083321;28;20317;-62
2023/12/12 10:26:33;;;;;;;6.15;3.30;;;;;;;-145.63;55.53;39014.47;5071423;28;20246;-63
2023/12/12 10:29:00;;;;;;;8.45;3.28;;;;;;;-145.63;54.92;38382.88;5072019;28;20248;-63
2023/12/12 10:31:26;;;;;;;8.63;3.58;;;;;;;-145.63;55.29;39020.34;5074458;28;20058;-62
2023/12/12 10:33:55;;;;;;;7.00;2.60;;;;;;;-145.63;55.20;38998.81;5085856;28;20051;-63
2023/12/12 10:36:21;;;;;;;6.47;3.17;;;;;;;-145.63;55.92;38979.28;5086113;28;20155;-62
2023/12/12 10:38:47;;;;;;;8.73;3.67;;;;;;;-145.63;55.05;38992.97;5065923;28;20032;-62
2023/12/12 10:41:18;;;;;;;5.72;2.92;;;;;;;-145.63;54.88;39012.50;5080946;28;20022;-64
2023/12/12 10:43:44;;;;;;;;;;;;;;;-145.63;55.79;39012.50;5057334;28;20032;-63
2023/12/12 10:46:19;;;;;;;9.52;3.70;;;;;;;-145.63;55.38;38822.81;5070862;28;19909;-62
2023/12/12 10:48:46;;;;;;;9.85;3.22;;;;;;;-145.63;54.59;39051.63;5085612;28;20441;-63
2023/12/12 10:51:14;;;;;;;7.63;3.17;;;;;;;-145.63;55.59;39063.34;5067719;28;20027;-63
2023/12/12 10:53:42;;;;;;;7.93;3.30;;;;;;;-145.63;55.77;39010.56;5085378;28;20092;-63
2023/12/12 10:56:11;;;;;;;6.15;3.38;;;;;;;-145.63;55.33;38441.53;5085475;28;20020;-63
2023/12/12 10:58:39;;;;;;;8.30;3.40;;;;;;;-145.63;54.55;39043.81;5095837;28;20046;-61
2023/12/12 11:01:08;;;;;;;7.93;3.83;;;;;;;-145.63;55.89;38985.13;5100015;28;20055;-63
2023/12/12 11:03:35;;;;;;;6.32;3.10;;;;;;;-145.63;55.86;39008.59;5083577;28;20366;-63
2023/12/12 11:06:01;;;;;;;7.60;3.90;;;;;;;-145.63;56.06;39026.19;5083212;28;20032;-62
2023/12/12 11:08:27;;;;;;;5.70;3.10;;;;;;;-145.63;55.21;39018.38;5077744;28;20041;-63
2023/12/12 11:10:54;;;;;;;5.22;3.15;;;;;;;-145.63;55.20;39016.44;5083562;28;20364;-63
2023/12/12 11:13:28;;;;;;;7.22;3.72;;;;;;;-145.63;55.13;39028.16;5077672;28;20028;-62